Time;durP1;ratioP1;P1;durP2;ratioP2;P2;SDS_P1;SDS_P2;PMS_P1;PMS_P2;Temp;Humidity;BMP_temperature;BMP_pressure;BME280_temperature;BME280_humidity;BME280_pressure;Samples;Min_cycle;Max_cycle;Signal;HPM_P1;HPM_P2
2023/09/10 00:00:00;;;;;;;26.48;23.70;;;;;;;;;;5064397;28;20119;-59
2023/09/10 00:02:26;;;;;;;33.60;27.52;;;;;;;;;;5058699;28;20268;-59
2023/09/10 00:04:52;;;;;;;29.13;25.88;;;;;;;;;;5062826;28;20044;-58
2023/09/10 00:07:18;;;;;;;23.25;20.23;;;;;;;;;;5063425;28;20028;-58
2023/09/10 00:09:45;;;;;;;23.30;20.80;;;;;;;;;;5065730;28;20488;-59
2023/09/10 00:12:11;;;;;;;26.83;22.52;;;;;;;;;;5040774;28;20515;-59
2023/09/10 00:14:37;;;;;;;30.45;27.25;;;;;;;;;;5069728;28;20049;-59
2023/09/10 00:17:03;;;;;;;27.75;24.83;;;;;;;;;;5064496;28;20113;-59
2023/09/10 00:19:30;;;;;;;27.95;24.38;;;;;;;;;;5070149;28;20095;-59
2023/09/10 00:21:56;;;;;;;31.63;26.88;;;;;;;;;;5065804;28;20037;-59
2023/09/10 00:24:22;;;;;;;36.72;32.60;;;;;;;;;;5068725;28;20080;-58
2023/09/10 00:26:48;;;;;;;34.85;25.85;;;;;;;;;;5061195;28;20047;-59
2023/09/10 00:29:14;;;;;;;30.83;27.73;;;;;;;;;;5066376;28;20076;-59
2023/09/10 00:31:40;;;;;;;32.15;26.48;;;;;;;;;;5065099;28;20353;-59
2023/09/10 00:34:07;;;;;;;26.40;20.80;;;;;;;;;;5065892;28;20067;-59
2023/09/10 00:36:34;;;;;;;28.00;24.95;;;;;;;;;;5064223;28;20054;-58
2023/09/10 00:39:00;;;;;;;30.02;26.65;;;;;;;;;;5061804;28;20048;-59
2023/09/10 00:41:26;;;;;;;27.30;23.35;;;;;;;;;;5066780;28;20448;-58
2023/09/10 00:43:53;;;;;;;24.92;22.33;;;;;;;;;;5064695;28;20078;-59
2023/09/10 00:46:19;;;;;;;24.45;22.05;;;;;;;;;;5067941;28;20037;-59
2023/09/10 00:48:45;;;;;;;26.10;22.83;;;;;;;;;;5070287;28;20056;-58
2023/09/10 00:51:12;;;;;;;27.50;24.60;;;;;;;;;;5071289;28;20100;-59
2023/09/10 00:53:38;;;;;;;28.80;25.90;;;;;;;;;;5073379;28;20096;-59
2023/09/10 00:56:05;;;;;;;29.85;26.60;;;;;;;;;;5070019;28;20049;-59
2023/09/10 00:58:31;;;;;;;30.13;26.92;;;;;;;;;;5067921;28;20055;-59
2023/09/10 01:00:58;;;;;;;29.10;26.20;;;;;;;;;;5062229;28;20475;-58
2023/09/10 01:03:25;;;;;;;28.65;25.73;;;;;;;;;;5057364;28;20103;-58
2023/09/10 01:05:51;;;;;;;28.45;25.05;;;;;;;;;;5065324;28;20074;-59
2023/09/10 01:08:18;;;;;;;29.80;25.80;;;;;;;;;;5058659;28;20059;-59
2023/09/10 01:11:04;;;;;;;28.55;25.70;;;;;;;;;;5061694;28;20427;-59
2023/09/10 01:13:39;;;;;;;28.85;25.85;;;;;;;;;;5056924;28;20044;-59
2023/09/10 01:16:08;;;;;;;29.42;26.35;;;;;;;;;;5058964;28;20162;-59
2023/09/10 01:18:49;;;;;;;27.10;24.40;;;;;;;;;;5063409;28;20085;-59
2023/09/10 01:21:31;;;;;;;30.92;27.73;;;;;;;;;;5064880;28;20531;-59
2023/09/10 01:24:06;;;;;;;25.40;22.70;;;;;;;;;;5064958;28;20120;-59
2023/09/10 01:26:32;;;;;;;21.35;19.05;;;;;;;;;;5062765;28;20127;-58
2023/09/10 01:28:58;;;;;;;29.40;26.00;;;;;;;;;;5063888;28;20040;-59
2023/09/10 01:31:25;;;;;;;22.80;20.38;;;;;;;;;;5069643;28;20067;-59
2023/09/10 01:33:56;;;;;;;20.15;17.98;;;;;;;;;;5059597;28;20045;-59
2023/09/10 01:36:32;;;;;;;18.33;16.40;;;;;;;;;;5055136;28;20049;-59
2023/09/10 01:39:05;;;;;;;17.98;16.02;;;;;;;;;;5068737;28;20040;-59
2023/09/10 01:41:31;;;;;;;21.55;19.55;;;;;;;;;;5067976;28;20053;-58
2023/09/10 01:43:58;;;;;;;18.33;16.67;;;;;;;;;;5060347;28;20063;-59
2023/09/10 01:46:25;;;;;;;18.40;16.52;;;;;;;;;;5061881;28;20052;-59
2023/09/10 01:48:52;;;;;;;36.00;24.10;;;;;;;;;;5057664;28;20057;-59
2023/09/10 01:51:18;;;;;;;56.45;30.75;;;;;;;;;;5066380;28;20120;-58
2023/09/10 01:53:46;;;;;;;78.22;32.67;;;;;;;;;;5066885;28;20048;-59
2023/09/10 01:56:12;;;;;;;69.28;32.08;;;;;;;;;;5062349;28;20538;-59
2023/09/10 01:58:38;;;;;;;40.72;28.15;;;;;;;;;;5065804;28;20032;-59
2023/09/10 02:01:06;;;;;;;38.35;26.00;;;;;;;;;;5061474;28;20087;-59
2023/09/10 02:03:33;;;;;;;29.80;26.95;;;;;;;;;;5058161;28;20895;-59
2023/09/10 02:06:03;;;;;;;29.75;26.92;;;;;;;;;;5063235;28;20040;-58
2023/09/10 02:08:29;;;;;;;25.15;22.85;;;;;;;;;;5057794;28;20041;-59
2023/09/10 02:10:55;;;;;;;49.10;21.70;;;;;;;;;;5064926;28;20487;-59
2023/09/10 02:13:22;;;;;;;23.73;21.63;;;;;;;;;;5061070;28;20059;-59
2023/09/10 02:15:48;;;;;;;21.05;19.23;;;;;;;;;;5059888;28;20079;-59
2023/09/10 02:18:14;;;;;;;19.38;17.63;;;;;;;;;;5065093;28;20514;-58
2023/09/10 02:20:40;;;;;;;19.20;17.42;;;;;;;;;;5058209;28;20471;-59
2023/09/10 02:23:06;;;;;;;19.33;17.52;;;;;;;;;;5058966;28;20036;-59
2023/09/10 02:25:32;;;;;;;19.05;17.35;;;;;;;;;;5069701;28;20044;-59
2023/09/10 02:28:00;;;;;;;68.93;21.77;;;;;;;;;;5065939;28;20051;-58
2023/09/10 02:30:26;;;;;;;28.05;25.15;;;;;;;;;;5062524;28;20114;-59
2023/09/10 02:32:52;;;;;;;33.42;26.48;;;;;;;;;;5067045;28;20033;-59
2023/09/10 02:35:18;;;;;;;25.88;23.48;;;;;;;;;;5059428;28;20416;-59
2023/09/10 02:37:44;;;;;;;21.20;19.30;;;;;;;;;;5067343;28;20457;-59
2023/09/10 02:40:11;;;;;;;28.77;15.80;;;;;;;;;;5063897;28;20048;-59
2023/09/10 02:42:38;;;;;;;23.13;17.42;;;;;;;;;;5067892;28;20488;-58
2023/09/10 02:45:04;;;;;;;31.83;19.35;;;;;;;;;;5065257;28;20124;-59
2023/09/10 02:47:30;;;;;;;29.45;19.02;;;;;;;;;;5063339;28;20123;-59
2023/09/10 02:49:57;;;;;;;70.68;21.48;;;;;;;;;;5067978;28;20131;-59
2023/09/10 02:52:26;;;;;;;61.63;22.00;;;;;;;;;;5067219;28;20048;-59
2023/09/10 02:54:52;;;;;;;25.33;21.73;;;;;;;;;;5066487;28;20044;-58
2023/09/10 02:57:19;;;;;;;21.20;18.98;;;;;;;;;;5067088;28;20440;-59
2023/09/10 02:59:45;;;;;;;23.35;19.27;;;;;;;;;;5067533;28;20439;-58
2023/09/10 03:02:11;;;;;;;42.63;23.67;;;;;;;;;;5063143;28;20033;-59
2023/09/10 03:04:37;;;;;;;24.13;21.73;;;;;;;;;;5064829;28;20047;-59
2023/09/10 03:07:03;;;;;;;24.67;18.92;;;;;;;;;;5061896;28;20032;-59
2023/09/10 03:09:29;;;;;;;20.05;18.15;;;;;;;;;;5068500;28;20048;-60
2023/09/10 03:12:16;;;;;;;18.55;16.92;;;;;;;;;;5060728;28;20037;-59
2023/09/10 03:14:42;;;;;;;18.80;16.98;;;;;;;;;;5092412;28;20052;-59
2023/09/10 03:17:10;;;;;;;18.52;16.73;;;;;;;;;;5070235;28;20040;-58
2023/09/10 03:19:37;;;;;;;22.58;20.38;;;;;;;;;;5069622;28;20500;-59
2023/09/10 03:22:03;;;;;;;17.98;16.33;;;;;;;;;;5067637;28;20041;-59
2023/09/10 03:24:30;;;;;;;21.30;19.27;;;;;;;;;;5067640;28;20044;-58
2023/09/10 03:26:56;;;;;;;27.50;23.45;;;;;;;;;;5065704;28;20374;-58
2023/09/10 03:29:22;;;;;;;24.20;21.73;;;;;;;;;;5062223;28;20036;-59
2023/09/10 03:31:48;;;;;;;24.40;21.92;;;;;;;;;;5067302;28;20033;-59
2023/09/10 03:34:14;;;;;;;26.83;24.13;;;;;;;;;;5070033;28;20097;-59
2023/09/10 03:36:41;;;;;;;25.15;22.63;;;;;;;;;;5066581;28;20085;-59
2023/09/10 03:39:07;;;;;;;27.90;25.00;;;;;;;;;;5066828;28;20496;-59
2023/09/10 03:41:33;;;;;;;23.75;21.45;;;;;;;;;;5063484;28;20093;-58
2023/09/10 03:44:00;;;;;;;23.25;20.95;;;;;;;;;;5067023;28;20036;-59
2023/09/10 03:46:26;;;;;;;22.67;20.35;;;;;;;;;;5060689;28;20534;-59
2023/09/10 03:48:52;;;;;;;20.17;18.25;;;;;;;;;;5062099;28;20063;-59
2023/09/10 03:51:18;;;;;;;20.25;18.30;;;;;;;;;;5066653;28;20045;-59
2023/09/10 03:53:44;;;;;;;15.18;13.32;;;;;;;;;;5066090;28;20532;-59
2023/09/10 03:56:11;;;;;;;17.15;15.35;;;;;;;;;;5065597;28;20032;-59
2023/09/10 03:58:37;;;;;;;17.80;15.98;;;;;;;;;;5067867;28;20047;-58
2023/09/10 04:01:03;;;;;;;19.58;17.35;;;;;;;;;;5062315;28;20060;-59
2023/09/10 04:03:29;;;;;;;24.58;22.17;;;;;;;;;;5065628;28;20044;-58
2023/09/10 04:05:55;;;;;;;20.88;18.73;;;;;;;;;;5065588;28;20052;-59
2023/09/10 04:08:22;;;;;;;27.65;24.25;;;;;;;;;;5063908;28;20048;-59
2023/09/10 04:10:48;;;;;;;24.40;22.00;;;;;;;;;;5065784;28;20124;-59
2023/09/10 04:13:14;;;;;;;24.38;21.88;;;;;;;;;;5069197;28;20045;-59
2023/09/10 04:15:40;;;;;;;23.85;20.83;;;;;;;;;;5064237;28;20064;-59
2023/09/10 04:18:06;;;;;;;26.00;21.67;;;;;;;;;;5065603;28;20044;-59
2023/09/10 04:20:33;;;;;;;37.05;30.42;;;;;;;;;;5063552;28;20036;-59
2023/09/10 04:22:59;;;;;;;30.90;25.40;;;;;;;;;;5065826;28;20040;-59
2023/09/10 04:25:25;;;;;;;33.97;25.15;;;;;;;;;;5064227;28;20342;-58
2023/09/10 04:27:51;;;;;;;44.30;30.05;;;;;;;;;;5065745;28;20044;-58
2023/09/10 04:30:17;;;;;;;54.88;31.42;;;;;;;;;;5065573;28;20123;-59
2023/09/10 04:32:44;;;;;;;41.00;33.03;;;;;;;;;;5062626;28;20029;-58
2023/09/10 04:35:10;;;;;;;107.43;36.08;;;;;;;;;;5054362;28;20638;-58
2023/09/10 04:37:37;;;;;;;34.60;30.98;;;;;;;;;;5062767;28;20044;-58
2023/09/10 04:40:07;;;;;;;28.02;25.23;;;;;;;;;;5063645;28;20042;-58
2023/09/10 04:42:33;;;;;;;29.02;26.13;;;;;;;;;;5063435;28;20045;-59
2023/09/10 04:45:00;;;;;;;28.05;25.35;;;;;;;;;;5060207;28;20106;-58
2023/09/10 04:47:26;;;;;;;25.98;23.50;;;;;;;;;;5065618;28;20131;-59
2023/09/10 04:49:52;;;;;;;27.83;25.00;;;;;;;;;;5063793;28;20048;-59
2023/09/10 04:52:18;;;;;;;133.40;29.02;;;;;;;;;;5066552;28;20040;-58
2023/09/10 04:54:44;;;;;;;80.60;26.05;;;;;;;;;;5060234;28;20143;-58
2023/09/10 04:57:11;;;;;;;55.05;26.48;;;;;;;;;;5069482;28;20089;-59
2023/09/10 04:59:37;;;;;;;27.60;24.80;;;;;;;;;;5058639;28;20044;-59
2023/09/10 05:02:05;;;;;;;28.75;25.95;;;;;;;;;;5068331;28;20108;-59
2023/09/10 05:04:31;;;;;;;28.05;25.33;;;;;;;;;;5065023;28;20044;-58
2023/09/10 05:06:58;;;;;;;28.15;25.42;;;;;;;;;;5069684;28;20218;-59
2023/09/10 05:09:24;;;;;;;34.97;31.27;;;;;;;;;;5070736;28;20067;-58
2023/09/10 05:11:51;;;;;;;39.03;34.83;;;;;;;;;;5069843;28;20090;-58
2023/09/10 05:14:17;;;;;;;38.72;34.45;;;;;;;;;;5060804;28;20080;-59
2023/09/10 05:16:43;;;;;;;39.50;35.20;;;;;;;;;;5068125;28;20044;-58
2023/09/10 05:19:10;;;;;;;43.40;38.70;;;;;;;;;;5061706;28;20077;-59
2023/09/10 05:21:36;;;;;;;42.92;35.97;;;;;;;;;;5056595;28;20060;-58
2023/09/10 05:24:02;;;;;;;36.22;32.40;;;;;;;;;;5059850;28;20585;-58
2023/09/10 05:26:28;;;;;;;33.00;29.52;;;;;;;;;;5066513;28;20128;-59
2023/09/10 05:28:54;;;;;;;31.45;28.25;;;;;;;;;;5066520;28;20413;-58
2023/09/10 05:31:20;;;;;;;31.92;28.13;;;;;;;;;;5066843;28;20041;-58
2023/09/10 05:33:47;;;;;;;32.55;29.15;;;;;;;;;;5066524;28;20496;-58
2023/09/10 05:36:13;;;;;;;32.00;28.08;;;;;;;;;;5067218;28;20533;-58
2023/09/10 05:38:39;;;;;;;31.15;27.85;;;;;;;;;;5066217;28;20120;-59
2023/09/10 05:41:07;;;;;;;29.70;26.42;;;;;;;;;;5061626;28;20040;-59
2023/09/10 05:43:33;;;;;;;28.92;25.92;;;;;;;;;;5064575;28;20036;-59
2023/09/10 05:45:59;;;;;;;29.80;26.10;;;;;;;;;;5062821;28;20120;-58
2023/09/10 05:48:26;;;;;;;32.38;29.08;;;;;;;;;;5064932;28;20417;-59
2023/09/10 05:50:55;;;;;;;32.95;29.55;;;;;;;;;;5067248;28;20477;-58
2023/09/10 05:53:22;;;;;;;34.85;29.88;;;;;;;;;;5067573;28;20044;-58
2023/09/10 05:55:48;;;;;;;37.88;33.78;;;;;;;;;;5070349;28;20388;-59
2023/09/10 05:58:14;;;;;;;34.20;29.50;;;;;;;;;;5068811;28;20045;-59
2023/09/10 06:00:40;;;;;;;37.03;32.25;;;;;;;;;;5070736;28;20517;-59
2023/09/10 06:03:09;;;;;;;33.60;27.67;;;;;;;;;;5061307;28;20043;-58
2023/09/10 06:05:35;;;;;;;31.92;28.52;;;;;;;;;;5066150;28;20044;-58
2023/09/10 06:08:02;;;;;;;36.30;29.58;;;;;;;;;;5055414;28;20105;-58
2023/09/10 06:10:28;;;;;;;44.13;37.42;;;;;;;;;;5069410;28;20440;-58
2023/09/10 06:12:54;;;;;;;39.80;35.33;;;;;;;;;;5064582;28;20050;-58
2023/09/10 06:15:21;;;;;;;32.40;27.65;;;;;;;;;;5065730;28;20044;-58
2023/09/10 06:17:47;;;;;;;30.15;26.73;;;;;;;;;;5064673;28;20051;-59
2023/09/10 06:20:14;;;;;;;33.65;30.25;;;;;;;;;;5064379;28;20075;-59
2023/09/10 06:22:40;;;;;;;32.28;28.88;;;;;;;;;;5062614;28;20195;-59
2023/09/10 06:25:07;;;;;;;49.08;38.33;;;;;;;;;;5062319;28;20036;-59
2023/09/10 06:27:33;;;;;;;49.25;40.47;;;;;;;;;;5059727;28;20048;-58
2023/09/10 06:29:59;;;;;;;47.15;40.85;;;;;;;;;;5062685;28;20040;-59
2023/09/10 06:32:26;;;;;;;41.72;37.17;;;;;;;;;;5060782;28;20091;-58
2023/09/10 06:34:52;;;;;;;46.97;40.83;;;;;;;;;;5067305;28;20514;-58
2023/09/10 06:37:18;;;;;;;54.33;45.50;;;;;;;;;;5055366;28;20080;-58
2023/09/10 06:39:44;;;;;;;63.60;51.78;;;;;;;;;;5064904;28;20469;-58
2023/09/10 06:42:11;;;;;;;61.05;49.63;;;;;;;;;;5060906;28;20051;-59
2023/09/10 06:44:38;;;;;;;63.50;51.15;;;;;;;;;;5063287;28;20131;-59
2023/09/10 06:47:05;;;;;;;66.43;53.33;;;;;;;;;;5068150;28;20064;-59
2023/09/10 06:49:31;;;;;;;59.58;51.95;;;;;;;;;;5066491;28;20410;-59
2023/09/10 06:51:57;;;;;;;57.88;50.08;;;;;;;;;;5060689;28;20044;-58
2023/09/10 06:54:24;;;;;;;58.28;49.42;;;;;;;;;;5063271;28;20052;-59
2023/09/10 06:56:50;;;;;;;62.75;51.22;;;;;;;;;;5068634;28;20040;-59
2023/09/10 06:59:17;;;;;;;61.17;49.63;;;;;;;;;;5059655;28;20075;-58
2023/09/10 07:01:44;;;;;;;63.03;52.17;;;;;;;;;;5063352;28;20063;-59
2023/09/10 07:04:20;;;;;;;68.97;53.05;;;;;;;;;;5067831;28;20044;-59
2023/09/10 07:06:47;;;;;;;66.38;53.63;;;;;;;;;;5065480;28;20036;-59
2023/09/10 07:09:13;;;;;;;64.43;53.60;;;;;;;;;;5063925;28;20047;-59
2023/09/10 07:11:40;;;;;;;65.53;53.40;;;;;;;;;;5069137;28;20123;-59
2023/09/10 07:14:06;;;;;;;71.40;54.30;;;;;;;;;;5062806;28;20040;-59
2023/09/10 07:16:34;;;;;;;66.25;54.03;;;;;;;;;;5060940;28;20079;-58
2023/09/10 07:19:00;;;;;;;68.25;55.05;;;;;;;;;;5061593;28;20120;-58
2023/09/10 07:21:26;;;;;;;57.15;49.20;;;;;;;;;;5062360;28;20083;-58
2023/09/10 07:23:53;;;;;;;59.15;48.10;;;;;;;;;;5063997;28;20401;-58
2023/09/10 07:26:19;;;;;;;56.08;47.08;;;;;;;;;;5058230;28;20247;-59
2023/09/10 07:28:45;;;;;;;55.58;48.25;;;;;;;;;;5061071;28;20374;-58
2023/09/10 07:31:11;;;;;;;54.25;46.55;;;;;;;;;;5068954;28;20036;-59
2023/09/10 07:33:37;;;;;;;56.80;44.95;;;;;;;;;;5063443;28;20044;-59
2023/09/10 07:36:04;;;;;;;50.42;43.58;;;;;;;;;;5066708;28;20044;-59
2023/09/10 07:38:30;;;;;;;53.95;43.58;;;;;;;;;;5066908;28;20040;-58
2023/09/10 07:40:56;;;;;;;49.25;41.88;;;;;;;;;;5061461;28;20123;-58
2023/09/10 07:43:23;;;;;;;51.17;41.47;;;;;;;;;;5060617;28;20060;-58
2023/09/10 07:45:49;;;;;;;48.40;42.22;;;;;;;;;;5066053;28;20071;-59
2023/09/10 07:48:15;;;;;;;46.80;40.80;;;;;;;;;;5063258;28;20498;-59
2023/09/10 07:51:02;;;;;;;45.38;39.88;;;;;;;;;;5071414;28;20063;-59
2023/09/10 07:53:28;;;;;;;45.10;40.35;;;;;;;;;;5068380;28;20049;-59
2023/09/10 07:55:55;;;;;;;47.08;41.13;;;;;;;;;;5068541;28;20102;-59
2023/09/10 07:58:22;;;;;;;49.35;43.45;;;;;;;;;;5070849;28;20472;-59
2023/09/10 08:00:50;;;;;;;48.25;41.25;;;;;;;;;;5063246;28;20500;-59
2023/09/10 08:03:16;;;;;;;44.15;38.47;;;;;;;;;;5066307;28;20488;-59
2023/09/10 08:05:42;;;;;;;44.75;39.55;;;;;;;;;;5066809;28;20048;-59
2023/09/10 08:08:08;;;;;;;44.13;37.58;;;;;;;;;;5070302;28;20086;-58
2023/09/10 08:10:35;;;;;;;44.17;38.65;;;;;;;;;;5070409;28;20091;-59
2023/09/10 08:13:03;;;;;;;42.30;37.72;;;;;;;;;;5069374;28;20040;-59
2023/09/10 08:15:30;;;;;;;39.63;35.33;;;;;;;;;;5066184;28;20051;-59
2023/09/10 08:17:56;;;;;;;41.67;33.40;;;;;;;;;;5070561;28;20094;-58
2023/09/10 08:20:23;;;;;;;38.22;34.00;;;;;;;;;;5071144;28;20036;-59
2023/09/10 08:22:49;;;;;;;40.45;36.13;;;;;;;;;;5060237;28;20049;-59
2023/09/10 08:25:15;;;;;;;37.65;33.55;;;;;;;;;;5069932;28;20045;-59
2023/09/10 08:27:41;;;;;;;36.30;32.38;;;;;;;;;;5063908;28;20488;-59
2023/09/10 08:30:11;;;;;;;41.30;33.03;;;;;;;;;;5069495;28;20494;-59
2023/09/10 08:32:38;;;;;;;37.40;32.17;;;;;;;;;;5071559;28;20032;-59
2023/09/10 08:35:04;;;;;;;34.38;30.77;;;;;;;;;;5070752;28;20056;-59
2023/09/10 08:37:31;;;;;;;34.10;30.27;;;;;;;;;;5065132;28;20062;-58
2023/09/10 08:39:57;;;;;;;29.40;25.92;;;;;;;;;;5057947;28;20377;-59
2023/09/10 08:42:30;;;;;;;32.30;26.95;;;;;;;;;;5062088;28;20048;-59
2023/09/10 08:44:56;;;;;;;;;;;;;;;;;;5056975;28;20040;-58
2023/09/10 08:47:24;;;;;;;29.42;25.42;;;;;;;;;;5060761;28;19943;-59
2023/09/10 08:49:52;;;;;;;25.92;23.27;;;;;;;;;;5059568;28;20052;-59
2023/09/10 08:52:18;;;;;;;24.27;21.58;;;;;;;;;;5061989;28;20040;-58
2023/09/10 08:54:45;;;;;;;31.55;23.55;;;;;;;;;;5062051;28;20045;-58
2023/09/10 08:57:12;;;;;;;26.15;22.45;;;;;;;;;;5055894;28;20044;-58
2023/09/10 08:59:38;;;;;;;25.10;19.77;;;;;;;;;;5060222;28;20056;-58
2023/09/10 09:02:04;;;;;;;23.73;21.20;;;;;;;;;;5055585;28;20131;-58
2023/09/10 09:04:31;;;;;;;23.67;21.20;;;;;;;;;;5063590;28;20496;-58
2023/09/10 09:06:58;;;;;;;21.80;19.00;;;;;;;;;;5061570;28;20040;-58
2023/09/10 09:09:25;;;;;;;21.70;19.33;;;;;;;;;;5064382;28;20037;-58
2023/09/10 09:11:52;;;;;;;25.77;19.10;;;;;;;;;;5056311;28;20724;-58
2023/09/10 09:14:19;;;;;;;20.17;18.08;;;;;;;;;;5064504;28;20060;-58
2023/09/10 09:16:47;;;;;;;22.38;18.38;;;;;;;;;;5073928;28;20045;-59
2023/09/10 09:19:14;;;;;;;20.50;18.30;;;;;;;;;;5068450;28;20369;-58
2023/09/10 09:21:43;;;;;;;20.70;18.50;;;;;;;;;;5073881;28;20037;-58
2023/09/10 09:24:10;;;;;;;21.15;18.55;;;;;;;;;;5072456;28;20040;-58
2023/09/10 09:26:39;;;;;;;20.55;17.02;;;;;;;;;;5055737;28;20071;-58
2023/09/10 09:29:06;;;;;;;21.00;15.98;;;;;;;;;;5064283;28;20394;-58
2023/09/10 09:31:32;;;;;;;20.95;17.02;;;;;;;;;;5058701;28;20141;-58
2023/09/10 09:33:59;;;;;;;20.20;17.58;;;;;;;;;;5057404;28;20511;-59
2023/09/10 09:36:36;;;;;;;17.10;15.13;;;;;;;;;;5056973;28;20070;-58
2023/09/10 09:39:07;;;;;;;16.48;14.65;;;;;;;;;;5061027;28;20088;-58
2023/09/10 09:41:36;;;;;;;18.23;14.52;;;;;;;;;;5060520;28;20044;-58
2023/09/10 09:44:03;;;;;;;13.98;11.40;;;;;;;;;;5058399;28;20033;-58
2023/09/10 09:46:33;;;;;;;15.60;12.65;;;;;;;;;;5063857;28;20079;-58
2023/09/10 09:48:59;;;;;;;19.58;12.88;;;;;;;;;;5061109;28;20140;-59
2023/09/10 09:51:25;;;;;;;16.58;13.50;;;;;;;;;;5067028;28;20044;-59
2023/09/10 09:53:51;;;;;;;17.85;13.68;;;;;;;;;;5071113;28;20559;-58
2023/09/10 09:56:17;;;;;;;17.75;12.40;;;;;;;;;;5064525;28;20046;-59
2023/09/10 09:58:47;;;;;;;14.93;12.48;;;;;;;;;;5067026;28;20154;-59
2023/09/10 10:01:13;;;;;;;20.33;13.00;;;;;;;;;;5064874;28;20096;-59
2023/09/10 10:03:40;;;;;;;13.43;10.07;;;;;;;;;;5065530;28;20556;-59
2023/09/10 10:06:07;;;;;;;16.02;12.77;;;;;;;;;;5060658;28;20033;-59
2023/09/10 10:08:33;;;;;;;15.73;12.05;;;;;;;;;;5066484;28;20041;-59
2023/09/10 10:10:59;;;;;;;11.85;10.00;;;;;;;;;;5063884;28;20387;-59
2023/09/10 10:13:26;;;;;;;14.75;10.18;;;;;;;;;;5071314;28;20388;-59
2023/09/10 10:15:53;;;;;;;10.85;9.60;;;;;;;;;;5073500;28;20056;-59
2023/09/10 10:18:21;;;;;;;13.77;11.60;;;;;;;;;;5071456;28;20392;-59
2023/09/10 10:20:49;;;;;;;12.18;10.70;;;;;;;;;;5071115;28;20108;-59
2023/09/10 10:23:19;;;;;;;13.25;10.65;;;;;;;;;;5071482;28;20084;-59
2023/09/10 10:25:46;;;;;;;12.45;9.95;;;;;;;;;;5070962;28;20407;-59
2023/09/10 10:28:12;;;;;;;13.38;10.60;;;;;;;;;;5098599;28;20541;-59
2023/09/10 10:30:41;;;;;;;11.65;9.50;;;;;;;;;;5063792;28;20064;-58
2023/09/10 10:33:08;;;;;;;15.07;9.98;;;;;;;;;;5063311;28;20113;-59
2023/09/10 10:35:36;;;;;;;11.88;8.98;;;;;;;;;;5063696;28;20055;-59
2023/09/10 10:38:03;;;;;;;13.43;9.10;;;;;;;;;;5061423;28;20094;-59
2023/09/10 10:40:34;;;;;;;12.15;8.60;;;;;;;;;;5066342;28;20056;-59
2023/09/10 10:43:01;;;;;;;11.75;10.40;;;;;;;;;;5060668;28;20041;-59
2023/09/10 10:45:27;;;;;;;10.73;9.13;;;;;;;;;;5059271;28;20451;-59
2023/09/10 10:47:53;;;;;;;12.93;9.45;;;;;;;;;;5064637;28;20048;-59
2023/09/10 10:50:22;;;;;;;10.27;8.20;;;;;;;;;;5061925;28;20097;-59
2023/09/10 10:52:52;;;;;;;10.35;8.48;;;;;;;;;;5066435;28;20377;-59
2023/09/10 10:55:19;;;;;;;15.15;7.68;;;;;;;;;;5066355;28;20342;-59
2023/09/10 10:57:45;;;;;;;12.77;7.13;;;;;;;;;;5074882;28;20040;-60
2023/09/10 11:00:12;;;;;;;17.63;7.88;;;;;;;;;;5065323;28;20383;-59
2023/09/10 11:02:40;;;;;;;11.68;7.55;;;;;;;;;;5072537;28;20115;-59
2023/09/10 11:05:07;;;;;;;12.85;7.15;;;;;;;;;;5063774;28;20097;-59
2023/09/10 11:07:34;;;;;;;10.27;7.18;;;;;;;;;;5064670;28;20046;-59
2023/09/10 11:10:21;;;;;;;12.30;7.07;;;;;;;;;;5064036;28;20067;-59
2023/09/10 11:13:06;;;;;;;9.95;7.72;;;;;;;;;;5058579;28;20119;-59
2023/09/10 11:15:32;;;;;;;11.10;7.28;;;;;;;;;;5059777;28;20408;-59
2023/09/10 11:18:17;;;;;;;11.70;7.22;;;;;;;;;;5066509;28;20036;-59
2023/09/10 11:20:50;;;;;;;10.40;7.45;;;;;;;;;;5067302;28;20068;-59
2023/09/10 11:23:16;;;;;;;10.65;6.05;;;;;;;;;;5071192;28;20514;-59
2023/09/10 11:25:42;;;;;;;11.15;6.40;;;;;;;;;;5064152;28;20033;-59
2023/09/10 11:28:41;;;;;;;9.85;6.45;;;;;;;;;;5068015;28;20522;-59
2023/09/10 11:31:25;;;;;;;12.45;6.63;;;;;;;;;;5055455;28;20060;-59
2023/09/10 11:33:57;;;;;;;10.65;6.50;;;;;;;;;;5068529;28;20051;-59
2023/09/10 11:36:24;;;;;;;15.87;7.20;;;;;;;;;;5058931;28;20369;-59
2023/09/10 11:38:55;;;;;;;10.35;5.88;;;;;;;;;;5067321;28;20051;-59
2023/09/10 11:41:21;;;;;;;14.27;5.72;;;;;;;;;;5068591;28;20127;-59
2023/09/10 11:43:50;;;;;;;10.00;6.50;;;;;;;;;;5072154;28;20073;-59
2023/09/10 11:46:17;;;;;;;10.00;5.65;;;;;;;;;;5067875;28;20128;-59
2023/09/10 11:48:44;;;;;;;13.90;5.88;;;;;;;;;;5059183;28;20110;-59
2023/09/10 11:51:10;;;;;;;10.98;5.57;;;;;;;;;;5068165;28;20064;-59
2023/09/10 11:53:36;;;;;;;8.95;5.30;;;;;;;;;;5071115;28;20461;-59
2023/09/10 11:56:03;;;;;;;9.85;6.13;;;;;;;;;;5068792;28;20056;-59
2023/09/10 11:58:29;;;;;;;12.40;5.60;;;;;;;;;;5066414;28;20114;-59
2023/09/10 12:00:55;;;;;;;13.80;5.65;;;;;;;;;;5063272;28;20037;-59
2023/09/10 12:03:21;;;;;;;9.93;5.40;;;;;;;;;;5063249;28;20511;-59
2023/09/10 12:05:48;;;;;;;16.98;6.10;;;;;;;;;;5064480;28;20060;-59
2023/09/10 12:08:14;;;;;;;10.57;5.80;;;;;;;;;;5066067;28;20048;-59
2023/09/10 12:10:41;;;;;;;8.02;5.80;;;;;;;;;;5061554;28;20036;-59
2023/09/10 12:13:08;;;;;;;14.27;6.03;;;;;;;;;;5064919;28;20044;-59
2023/09/10 12:15:35;;;;;;;7.65;4.97;;;;;;;;;;5058522;28;20120;-59
2023/09/10 12:18:04;;;;;;;13.57;6.38;;;;;;;;;;5060644;28;20040;-59
2023/09/10 12:20:32;;;;;;;13.18;5.38;;;;;;;;;;5057605;28;20433;-59
2023/09/10 12:22:58;;;;;;;9.98;5.40;;;;;;;;;;5059633;28;20052;-59
2023/09/10 12:25:24;;;;;;;12.60;4.95;;;;;;;;;;5059037;28;20753;-59
2023/09/10 12:27:51;;;;;;;10.80;5.30;;;;;;;;;;5060586;28;20095;-59
2023/09/10 12:30:17;;;;;;;13.00;6.30;;;;;;;;;;5060780;28;20373;-59
2023/09/10 12:32:44;;;;;;;13.77;5.75;;;;;;;;;;5059612;28;20123;-59
2023/09/10 12:35:11;;;;;;;9.80;5.18;;;;;;;;;;5059559;28;20048;-59
2023/09/10 12:37:46;;;;;;;11.88;5.45;;;;;;;;;;5059715;28;20036;-59
2023/09/10 12:40:12;;;;;;;13.05;5.50;;;;;;;;;;5058908;28;20044;-59
2023/09/10 12:42:38;;;;;;;12.75;5.40;;;;;;;;;;5060588;28;20182;-59
2023/09/10 12:45:04;;;;;;;12.00;5.25;;;;;;;;;;5060538;28;20400;-59
2023/09/10 12:47:31;;;;;;;8.52;5.00;;;;;;;;;;5053354;28;20109;-59
2023/09/10 12:49:57;;;;;;;8.32;5.20;;;;;;;;;;5064764;28;20044;-59
2023/09/10 12:52:23;;;;;;;10.50;5.10;;;;;;;;;;5066591;28;20130;-59
2023/09/10 12:54:49;;;;;;;12.55;5.13;;;;;;;;;;5065508;28;20124;-59
2023/09/10 12:57:15;;;;;;;14.10;5.82;;;;;;;;;;5065692;28;20106;-59
2023/09/10 12:59:42;;;;;;;13.02;5.40;;;;;;;;;;5074405;28;20097;-59
2023/09/10 13:02:11;;;;;;;12.23;5.60;;;;;;;;;;5058343;28;20033;-59
2023/09/10 13:04:37;;;;;;;11.88;6.03;;;;;;;;;;5066508;28;20373;-59
2023/09/10 13:07:04;;;;;;;15.63;5.88;;;;;;;;;;5057870;28;20569;-59
2023/09/10 13:09:30;;;;;;;14.07;5.75;;;;;;;;;;5067768;28;20178;-59
2023/09/10 13:11:57;;;;;;;12.60;5.63;;;;;;;;;;5067394;28;20041;-59
2023/09/10 13:14:23;;;;;;;13.70;5.85;;;;;;;;;;5067570;28;20063;-59
2023/09/10 13:16:49;;;;;;;12.25;6.28;;;;;;;;;;5061648;28;20070;-59
2023/09/10 13:19:15;;;;;;;16.08;5.15;;;;;;;;;;5069418;28;20040;-59
2023/09/10 13:21:41;;;;;;;17.27;6.07;;;;;;;;;;5071908;28;20043;-59
2023/09/10 13:24:08;;;;;;;10.95;5.60;;;;;;;;;;5065367;28;20384;-59
2023/09/10 13:26:34;;;;;;;13.38;5.75;;;;;;;;;;5063295;28;20304;-59
2023/09/10 13:29:00;;;;;;;12.27;5.78;;;;;;;;;;5066431;28;20041;-59
2023/09/10 13:31:28;;;;;;;15.55;6.25;;;;;;;;;;5069854;28;20377;-59
2023/09/10 13:33:54;;;;;;;11.68;5.72;;;;;;;;;;5058676;28;20044;-59
2023/09/10 13:36:20;;;;;;;12.32;5.20;;;;;;;;;;5063021;28;20036;-59
2023/09/10 13:38:47;;;;;;;14.45;5.63;;;;;;;;;;5068557;28;20127;-59
2023/09/10 13:41:13;;;;;;;17.13;6.28;;;;;;;;;;5064577;28;20059;-59
2023/09/10 13:43:40;;;;;;;21.17;6.03;;;;;;;;;;5071707;28;20083;-59
2023/09/10 13:46:06;;;;;;;19.92;6.72;;;;;;;;;;5060785;28;20051;-59
2023/09/10 13:48:32;;;;;;;18.05;6.63;;;;;;;;;;5066931;28;20214;-59
2023/09/10 13:50:58;;;;;;;14.27;6.45;;;;;;;;;;5065462;28;20110;-59
2023/09/10 13:53:24;;;;;;;13.38;6.43;;;;;;;;;;5071048;28;20434;-59
2023/09/10 13:55:51;;;;;;;21.15;6.75;;;;;;;;;;5072145;28;20445;-59
2023/09/10 13:58:19;;;;;;;17.33;5.80;;;;;;;;;;5077224;28;20092;-59
2023/09/10 14:00:45;;;;;;;11.45;6.32;;;;;;;;;;5068828;28;20049;-59
2023/09/10 14:03:11;;;;;;;16.67;6.65;;;;;;;;;;5062201;28;20489;-59
2023/09/10 14:05:37;;;;;;;16.85;6.85;;;;;;;;;;5061448;28;20048;-59
2023/09/10 14:08:04;;;;;;;17.15;6.55;;;;;;;;;;5066990;28;20094;-59
2023/09/10 14:10:30;;;;;;;19.50;6.35;;;;;;;;;;5067361;28;20451;-59
2023/09/10 14:12:56;;;;;;;14.65;6.55;;;;;;;;;;5072112;28;20106;-59
2023/09/10 14:15:22;;;;;;;13.65;5.53;;;;;;;;;;5059773;28;20110;-59
2023/09/10 14:17:49;;;;;;;21.52;6.57;;;;;;;;;;5072833;28;20055;-59
2023/09/10 14:20:15;;;;;;;14.90;7.03;;;;;;;;;;5072976;28;20048;-59